createdAt,value
2023-02-14T00:01:20.669Z,39.45
2023-02-14T00:04:24.955Z,39.62
2023-02-14T00:07:27.792Z,39.30
2023-02-14T00:10:30.681Z,39.60
2023-02-14T00:13:33.566Z,38.84
2023-02-14T00:16:35.461Z,39.81
2023-02-14T00:19:39.713Z,39.39
2023-02-14T00:22:42.590Z,39.26
2023-02-14T00:25:45.415Z,39.18
2023-02-14T00:28:48.187Z,39.29
2023-02-14T00:31:51.383Z,39.26
2023-02-14T00:34:55.540Z,39.11
2023-02-14T00:37:58.388Z,38.90
2023-02-14T00:41:02.110Z,39.07
2023-02-14T00:44:05.329Z,38.67
2023-02-14T00:47:08.192Z,38.51
2023-02-14T00:50:12.648Z,38.62
2023-02-14T00:53:15.734Z,38.25
2023-02-14T00:56:19.068Z,38.31
2023-02-14T00:59:21.823Z,38.30
2023-02-14T01:02:24.697Z,38.14
2023-02-14T01:05:29.028Z,38.10
2023-02-14T01:08:32.191Z,38.04
2023-02-14T01:11:35.284Z,37.72
2023-02-14T01:14:38.376Z,37.95
2023-02-14T01:17:41.207Z,37.77
2023-02-14T01:20:45.463Z,37.46
2023-02-14T01:23:49.049Z,37.61
2023-02-14T01:26:51.902Z,37.30
2023-02-14T01:29:54.687Z,37.30
2023-02-14T01:32:57.558Z,37.31
2023-02-14T01:36:01.839Z,37.44
2023-02-14T01:39:05.723Z,37.25
2023-02-14T01:42:08.587Z,37.31
2023-02-14T01:45:16.856Z,37.19
2023-02-14T01:48:20.141Z,37.18
2023-02-14T01:51:24.740Z,36.82
2023-02-14T01:54:28.630Z,36.99
2023-02-14T01:57:35.315Z,36.94
2023-02-14T02:00:56.551Z,36.97
2023-02-14T02:04:02.527Z,36.75
2023-02-14T02:07:07.866Z,36.77
2023-02-14T02:10:11.051Z,36.87
2023-02-14T02:13:16.900Z,36.89
2023-02-14T02:16:37.232Z,36.81
2023-02-14T02:20:04.063Z,36.66
2023-02-14T02:23:33.424Z,36.84
2023-02-14T02:27:00.197Z,37.08
2023-02-14T02:30:23.725Z,37.17
2023-02-14T02:33:41.412Z,37.05
2023-02-14T02:36:59.509Z,37.23
2023-02-14T02:40:07.751Z,37.30
2023-02-14T02:43:16.497Z,37.32
2023-02-14T02:46:40.571Z,37.28
2023-02-14T02:50:04.522Z,37.30
2023-02-14T02:53:12.571Z,37.53
2023-02-14T02:56:34.892Z,37.32
2023-02-14T02:59:38.920Z,37.43
2023-02-14T03:02:57.222Z,37.50
2023-02-14T03:06:00.401Z,37.52
2023-02-14T03:09:12.621Z,37.46
2023-02-14T03:12:22.409Z,37.60
2023-02-14T03:15:35.221Z,37.54
2023-02-14T03:18:42.878Z,37.51
2023-02-14T03:21:47.425Z,37.56
2023-02-14T03:24:57.340Z,37.44
2023-02-14T03:28:02.594Z,37.64
2023-02-14T03:31:08.154Z,37.57
2023-02-14T03:34:13.844Z,37.61
2023-02-14T03:37:18.632Z,37.79
2023-02-14T03:40:26.286Z,37.81
2023-02-14T03:43:31.524Z,37.57
2023-02-14T03:46:37.335Z,37.59
2023-02-14T03:49:41.882Z,37.68
2023-02-14T03:52:45.836Z,37.86
2023-02-14T03:55:52.748Z,37.80
2023-02-14T03:58:57.572Z,37.71
2023-02-14T04:02:02.775Z,37.69
2023-02-14T04:05:08.661Z,37.58
2023-02-14T04:08:12.270Z,37.34
2023-02-14T04:11:16.516Z,37.16
2023-02-14T04:14:20.360Z,37.01
2023-02-14T04:17:40.523Z,36.61
2023-02-14T04:20:43.384Z,36.43
2023-02-14T04:23:46.204Z,36.23
2023-02-14T04:27:10.630Z,36.09
2023-02-14T04:30:14.985Z,35.88
2023-02-14T04:33:17.854Z,35.93
2023-02-14T04:36:20.624Z,35.88
2023-02-14T04:39:23.396Z,35.63
2023-02-14T04:42:27.609Z,35.71
2023-02-14T04:45:30.397Z,35.80
2023-02-14T04:48:33.216Z,35.91
2023-02-14T04:51:36.009Z,35.93
2023-02-14T04:54:38.893Z,35.82
2023-02-14T04:57:43.065Z,35.79
2023-02-14T05:00:45.938Z,35.64
2023-02-14T05:03:48.791Z,35.52
2023-02-14T05:06:51.796Z,35.51
2023-02-14T05:09:54.683Z,35.70
2023-02-14T05:12:58.933Z,35.46
2023-02-14T05:16:01.823Z,35.59
2023-02-14T05:19:04.673Z,35.41
2023-02-14T05:22:07.485Z,35.37
2023-02-14T05:25:10.357Z,35.45
2023-02-14T05:28:14.600Z,35.32
2023-02-14T05:31:17.588Z,35.25
2023-02-14T05:34:21.727Z,35.25
2023-02-14T05:37:24.762Z,35.27
2023-02-14T05:40:27.566Z,35.28
2023-02-14T05:43:31.909Z,35.24
2023-02-14T05:46:34.759Z,35.25
2023-02-14T05:49:37.548Z,35.42
2023-02-14T05:52:40.326Z,35.27
2023-02-14T05:55:43.119Z,35.31
2023-02-14T05:58:47.293Z,35.36
2023-02-14T06:01:50.163Z,35.52
2023-02-14T06:04:53.057Z,35.43
2023-02-14T06:07:55.837Z,35.44
2023-02-14T06:10:58.968Z,35.42
2023-02-14T06:14:03.362Z,35.40
2023-02-14T06:17:06.233Z,35.54
2023-02-14T06:20:10.670Z,35.58
2023-02-14T06:23:13.569Z,35.62
2023-02-14T06:26:16.396Z,35.61
2023-02-14T06:29:20.837Z,35.73
2023-02-14T06:32:23.769Z,35.80
2023-02-14T06:35:26.592Z,35.83
2023-02-14T06:38:29.420Z,35.96
2023-02-14T06:41:35.371Z,35.81
2023-02-14T06:44:39.554Z,36.05
2023-02-14T06:47:42.396Z,35.94
2023-02-14T06:50:45.282Z,36.11
2023-02-14T06:53:48.134Z,36.02
2023-02-14T06:56:51.172Z,36.05
2023-02-14T06:59:55.436Z,36.15
2023-02-14T07:02:58.278Z,36.26
2023-02-14T07:06:01.143Z,36.25
2023-02-14T07:09:03.967Z,36.22
2023-02-14T07:12:07.025Z,36.04
2023-02-14T07:15:13.277Z,36.10
2023-02-14T07:18:16.192Z,36.13
2023-02-14T07:21:19.009Z,36.08
2023-02-14T07:24:21.907Z,36.32
2023-02-14T07:27:24.741Z,36.36
2023-02-14T07:30:29.111Z,36.23
2023-02-14T07:33:31.988Z,36.11
2023-02-14T07:36:34.943Z,35.97
2023-02-14T07:39:37.717Z,36.07
2023-02-14T07:42:40.534Z,35.76
2023-02-14T07:45:44.723Z,35.57
2023-02-14T07:48:48.899Z,35.35
2023-02-14T07:51:51.784Z,35.46
2023-02-14T07:54:54.655Z,35.27
2023-02-14T07:57:57.523Z,35.16
2023-02-14T08:01:02.079Z,35.02
2023-02-14T08:04:05.362Z,35.04
2023-02-14T08:07:08.178Z,34.86
2023-02-14T08:10:12.983Z,34.85
2023-02-14T08:13:16.044Z,35.07
2023-02-14T08:16:20.325Z,34.72
2023-02-14T08:19:23.193Z,34.74
2023-02-14T08:22:26.050Z,34.65
2023-02-14T08:25:29.123Z,34.58
2023-02-14T08:28:33.278Z,34.52
2023-02-14T08:31:38.042Z,34.49
2023-02-14T08:34:40.921Z,34.48
2023-02-14T08:37:43.806Z,34.43
2023-02-14T08:40:46.719Z,34.41
2023-02-14T08:43:49.577Z,34.38
2023-02-14T08:46:53.817Z,34.42
2023-02-14T08:49:56.663Z,34.20
2023-02-14T08:52:59.558Z,34.26
2023-02-14T08:56:04.006Z,34.10
2023-02-14T08:59:06.873Z,34.24
2023-02-14T09:02:13.274Z,34.08
2023-02-14T09:05:16.332Z,34.01
2023-02-14T09:08:19.138Z,34.15
2023-02-14T09:11:23.034Z,34.09
2023-02-14T09:14:25.901Z,34.27
2023-02-14T09:17:30.723Z,34.07
2023-02-14T09:20:33.564Z,34.12
2023-02-14T09:23:36.360Z,34.39
2023-02-14T09:26:40.983Z,34.12
2023-02-14T09:29:43.942Z,34.17
2023-02-14T09:32:48.147Z,34.79
2023-02-14T09:36:08.479Z,34.09
2023-02-14T09:39:11.263Z,34.42
2023-02-14T09:42:22.309Z,34.57
2023-02-14T09:45:26.559Z,34.46
2023-02-14T09:48:33.497Z,34.52
2023-02-14T09:51:37.197Z,34.72
2023-02-14T09:54:41.681Z,34.68
2023-02-14T09:57:46.815Z,34.71
2023-02-14T10:00:53.867Z,35.31
2023-02-14T10:04:08.552Z,34.53
2023-02-14T10:07:16.383Z,34.36
2023-02-14T10:10:24.017Z,34.36
2023-02-14T10:13:31.113Z,34.60
2023-02-14T10:16:36.743Z,34.78
2023-02-14T10:19:42.786Z,34.75
2023-02-14T10:22:49.325Z,34.79
2023-02-14T10:25:55.857Z,35.13
2023-02-14T10:28:58.751Z,35.04
2023-02-14T10:32:02.290Z,36.24
2023-02-14T10:35:12.615Z,35.88
2023-02-14T10:38:29.596Z,35.82
2023-02-14T10:41:35.286Z,35.57
2023-02-14T10:44:43.133Z,35.51
2023-02-14T10:47:51.507Z,35.44
2023-02-14T10:50:59.116Z,35.43
2023-02-14T10:54:10.454Z,35.30
2023-02-14T10:57:15.586Z,35.09
2023-02-14T11:00:21.804Z,35.39
2023-02-14T11:03:25.268Z,35.11
2023-02-14T11:06:29.637Z,35.13
2023-02-14T11:09:32.451Z,35.07
2023-02-14T11:12:37.554Z,34.84
2023-02-14T11:15:40.832Z,35.73
2023-02-14T11:18:43.688Z,36.18
2023-02-14T11:21:49.726Z,36.34
2023-02-14T11:25:04.685Z,36.60
2023-02-14T11:28:16.125Z,36.61
2023-02-14T11:31:26.071Z,36.97
2023-02-14T11:34:40.254Z,37.57
2023-02-14T11:37:47.256Z,37.88
2023-02-14T11:40:55.768Z,37.71
2023-02-14T11:44:13.102Z,37.90
2023-02-14T11:47:20.759Z,37.62
2023-02-14T11:50:24.863Z,37.60
2023-02-14T11:53:30.292Z,37.78
2023-02-14T11:56:50.771Z,37.67
2023-02-14T11:59:54.452Z,37.32
2023-02-14T12:02:58.063Z,37.16
2023-02-14T12:06:02.912Z,37.52
2023-02-14T12:09:14.633Z,37.54
2023-02-14T12:12:19.667Z,37.52
2023-02-14T12:15:27.255Z,37.36
2023-02-14T12:18:48.272Z,37.38
2023-02-14T12:21:52.806Z,37.14
2023-02-14T12:25:00.294Z,37.37
2023-02-14T12:28:06.221Z,37.17
2023-02-14T12:31:10.799Z,37.06
2023-02-14T12:34:14.630Z,37.01
2023-02-14T12:37:32.317Z,36.98
2023-02-14T12:40:45.530Z,36.97
2023-02-14T12:43:51.646Z,36.40
2023-02-14T12:47:11.993Z,36.85
2023-02-14T12:50:21.949Z,37.00
2023-02-14T12:53:39.815Z,36.89
2023-02-14T12:56:48.930Z,36.87
2023-02-14T12:59:58.728Z,36.84
2023-02-14T13:03:19.935Z,36.46
2023-02-14T13:06:27.230Z,36.75
2023-02-14T13:09:35.741Z,37.24
2023-02-14T13:12:43.799Z,37.07
2023-02-14T13:15:53.264Z,36.99
2023-02-14T13:19:00.390Z,36.94
2023-02-14T13:22:05.174Z,36.90
2023-02-14T13:25:14.948Z,36.79
2023-02-14T13:28:19.886Z,36.69
2023-02-14T13:31:23.182Z,36.45
2023-02-14T13:34:29.655Z,36.22
2023-02-14T13:37:33.323Z,35.96
2023-02-14T13:40:37.912Z,35.86
2023-02-14T13:43:56.438Z,35.81
2023-02-14T13:46:59.310Z,35.45
2023-02-14T13:50:03.266Z,35.40
2023-02-14T13:53:06.386Z,35.24
2023-02-14T13:56:28.475Z,35.07
2023-02-14T13:59:33.600Z,35.13
2023-02-14T14:02:44.379Z,35.12
2023-02-14T14:06:04.363Z,34.91
2023-02-14T14:09:11.305Z,35.05
2023-02-14T14:12:28.971Z,34.98
2023-02-14T14:15:33.269Z,34.88
2023-02-14T14:18:40.001Z,34.66
2023-02-14T14:21:44.726Z,34.56
2023-02-14T14:24:58.234Z,34.88
2023-02-14T14:28:01.411Z,34.56
2023-02-14T14:31:12.643Z,34.43
2023-02-14T14:34:20.199Z,34.64
2023-02-14T14:37:24.200Z,34.46
2023-02-14T14:40:28.854Z,34.70
2023-02-14T14:43:32.722Z,34.97
2023-02-14T14:46:38.198Z,34.94
2023-02-14T14:49:41.021Z,34.96
2023-02-14T14:52:45.106Z,34.86
2023-02-14T14:55:52.016Z,35.01
2023-02-14T14:58:55.501Z,34.98
2023-02-14T15:01:59.651Z,34.77
2023-02-14T15:05:14.805Z,34.80
2023-02-14T15:08:18.580Z,34.87
2023-02-14T15:11:36.238Z,34.78
2023-02-14T15:14:41.835Z,34.68
2023-02-14T15:17:46.858Z,34.84
2023-02-14T15:20:50.484Z,34.75
2023-02-14T15:23:54.166Z,34.75
2023-02-14T15:26:57.552Z,34.80
2023-02-14T15:30:01.211Z,34.83
2023-02-14T15:33:06.250Z,34.81
2023-02-14T15:36:10.205Z,34.83
2023-02-14T15:39:16.958Z,34.84
2023-02-14T15:42:25.920Z,34.81
2023-02-14T15:45:30.882Z,34.60
2023-02-14T15:48:36.207Z,34.63
2023-02-14T15:51:39.802Z,34.84
2023-02-14T15:54:44.475Z,34.83
2023-02-14T15:57:52.559Z,34.86
2023-02-14T16:00:55.803Z,34.79
2023-02-14T16:04:01.398Z,34.79
2023-02-14T16:07:05.987Z,34.88
2023-02-14T16:10:20.462Z,34.60
2023-02-14T16:13:30.593Z,34.63
2023-02-14T16:16:48.281Z,34.54
2023-02-14T16:19:52.456Z,34.48
2023-02-14T16:23:10.153Z,34.60
2023-02-14T16:26:13.214Z,34.48
2023-02-14T16:29:17.074Z,34.34
2023-02-14T16:32:21.641Z,34.43
2023-02-14T16:35:25.968Z,34.43
2023-02-14T16:38:28.824Z,34.29
2023-02-14T16:41:32.370Z,34.24
2023-02-14T16:44:35.395Z,34.51
2023-02-14T16:47:38.170Z,34.29
2023-02-14T16:50:42.625Z,34.41
2023-02-14T16:53:45.524Z,34.39
2023-02-14T16:56:50.507Z,34.43
2023-02-14T16:59:53.384Z,34.35
2023-02-14T17:03:04.569Z,34.62
2023-02-14T17:06:09.010Z,34.33
2023-02-14T17:09:13.668Z,34.33
2023-02-14T17:12:18.095Z,34.20
2023-02-14T17:15:22.436Z,34.24
2023-02-14T17:18:25.752Z,34.29
2023-02-14T17:21:30.068Z,34.53
2023-02-14T17:24:33.053Z,34.45
2023-02-14T17:27:36.108Z,34.48
2023-02-14T17:30:38.895Z,34.70
2023-02-14T17:33:41.809Z,34.63
2023-02-14T17:36:46.601Z,34.66
2023-02-14T17:39:49.412Z,34.73
2023-02-14T17:42:52.230Z,34.99
2023-02-14T17:45:56.367Z,34.81
2023-02-14T17:49:02.609Z,35.02
2023-02-14T17:52:07.230Z,35.22
2023-02-14T17:55:10.377Z,35.32
2023-02-14T17:58:13.238Z,35.33
2023-02-14T18:01:17.887Z,35.15
2023-02-14T18:04:20.786Z,35.77
2023-02-14T18:07:25.104Z,35.65
2023-02-14T18:10:27.984Z,35.59
2023-02-14T18:13:31.808Z,35.80
2023-02-14T18:16:34.654Z,35.80
2023-02-14T18:19:37.530Z,35.56
2023-02-14T18:22:41.730Z,35.30
2023-02-14T18:25:49.881Z,35.20
2023-02-14T18:28:52.837Z,34.99
2023-02-14T18:31:55.742Z,35.02
2023-02-14T18:34:58.609Z,34.81
2023-02-14T18:38:02.895Z,34.79
2023-02-14T18:41:06.392Z,34.98
2023-02-14T18:44:09.298Z,34.59
2023-02-14T18:47:12.443Z,34.71
2023-02-14T18:50:15.265Z,34.73
2023-02-14T18:53:19.515Z,34.92
2023-02-14T18:56:23.671Z,35.04
2023-02-14T18:59:26.464Z,34.96
2023-02-14T19:02:29.645Z,34.58
2023-02-14T19:05:32.985Z,34.61
2023-02-14T19:08:39.834Z,34.55
2023-02-14T19:11:42.929Z,34.37
2023-02-14T19:14:45.960Z,34.44
2023-02-14T19:17:48.809Z,34.57
2023-02-14T19:20:51.847Z,34.47
2023-02-14T19:23:57.666Z,34.29
2023-02-14T19:27:00.526Z,34.30
2023-02-14T19:30:03.389Z,34.45
2023-02-14T19:33:06.966Z,34.45
2023-02-14T19:36:12.874Z,34.41
2023-02-14T19:39:17.435Z,34.47
2023-02-14T19:42:20.196Z,34.66
2023-02-14T19:45:23.050Z,34.77
2023-02-14T19:48:25.877Z,34.64
2023-02-14T19:51:30.458Z,35.11
2023-02-14T19:54:38.841Z,35.10
2023-02-14T19:57:42.253Z,35.09
2023-02-14T20:00:45.486Z,35.28
2023-02-14T20:03:48.346Z,35.22
2023-02-14T20:06:51.909Z,35.26
2023-02-14T20:09:56.128Z,35.18
2023-02-14T20:12:58.936Z,34.98
2023-02-14T20:16:01.965Z,35.16
2023-02-14T20:19:05.434Z,35.47
2023-02-14T20:22:08.441Z,35.84
2023-02-14T20:25:12.751Z,35.88
2023-02-14T20:28:15.549Z,35.84
2023-02-14T20:31:19.574Z,35.83
2023-02-14T20:34:22.572Z,35.71
2023-02-14T20:37:25.640Z,35.78
2023-02-14T20:40:29.966Z,35.50
2023-02-14T20:43:32.728Z,35.24
2023-02-14T20:46:36.211Z,35.39
2023-02-14T20:49:39.213Z,35.04
2023-02-14T20:52:42.025Z,34.83
2023-02-14T20:55:47.649Z,34.77
2023-02-14T20:58:50.697Z,34.68
2023-02-14T21:01:53.816Z,34.81
2023-02-14T21:05:00.260Z,34.55
2023-02-14T21:08:03.182Z,34.57
2023-02-14T21:11:08.062Z,34.54
2023-02-14T21:14:11.867Z,34.48
2023-02-14T21:17:14.748Z,34.44
2023-02-14T21:20:19.553Z,34.57
2023-02-14T21:23:22.527Z,34.42
2023-02-14T21:26:27.153Z,34.32
2023-02-14T21:29:30.471Z,34.32
2023-02-14T21:32:33.351Z,34.25
2023-02-14T21:35:36.967Z,34.23
2023-02-14T21:38:39.919Z,34.32
2023-02-14T21:41:44.096Z,34.37
2023-02-14T21:45:04.286Z,34.31
2023-02-14T21:48:24.704Z,34.58
2023-02-14T21:51:27.583Z,34.34
2023-02-14T21:54:30.459Z,34.06
2023-02-14T21:57:34.711Z,34.18
2023-02-14T22:00:37.498Z,34.07
2023-02-14T22:03:40.315Z,33.99
2023-02-14T22:06:43.638Z,34.24
2023-02-14T22:09:46.538Z,34.27
2023-02-14T22:12:50.740Z,34.33
2023-02-14T22:15:53.669Z,34.22
2023-02-14T22:18:56.466Z,34.17
2023-02-14T22:21:59.297Z,34.37
2023-02-14T22:25:02.209Z,34.33
2023-02-14T22:28:06.539Z,34.30
2023-02-14T22:31:09.621Z,34.13
2023-02-14T22:34:13.488Z,34.22
2023-02-14T22:37:16.285Z,34.08
2023-02-14T22:40:19.354Z,34.31
2023-02-14T22:43:23.688Z,34.08
2023-02-14T22:46:27.341Z,34.07
2023-02-14T22:49:30.212Z,34.18
2023-02-14T22:52:33.057Z,34.00
2023-02-14T22:55:35.945Z,34.08
2023-02-14T22:58:40.506Z,34.02
2023-02-14T23:01:43.333Z,33.93
2023-02-14T23:04:46.194Z,33.89
2023-02-14T23:07:49.070Z,34.04
2023-02-14T23:10:51.928Z,34.38
2023-02-14T23:14:13.755Z,34.40
2023-02-14T23:17:34.911Z,34.13
2023-02-14T23:20:55.596Z,34.17
2023-02-14T23:23:58.385Z,34.17
2023-02-14T23:27:01.533Z,34.18
2023-02-14T23:30:06.391Z,33.89
2023-02-14T23:33:09.326Z,34.05
2023-02-14T23:36:12.301Z,34.03
2023-02-14T23:39:15.102Z,33.96
2023-02-14T23:42:17.920Z,33.91
2023-02-14T23:45:37.917Z,33.89
2023-02-14T23:48:40.775Z,33.93
2023-02-14T23:51:44.446Z,34.04
2023-02-14T23:54:47.274Z,33.97
2023-02-14T23:57:50.151Z,33.93
